sensor_id;sensor_type;location;lat;lon;timestamp;pressure;altitude;pressure_sealevel;temperature;humidity
24336;BME280;33098;52.400;16.880;2023-04-01T00:01:08;98846.01;;;10.01;100.00
24336;BME280;33098;52.400;16.880;2023-04-01T00:03:35;98842.16;;;9.96;100.00
24336;BME280;33098;52.400;16.880;2023-04-01T00:06:03;98842.11;;;9.95;100.00
24336;BME280;33098;52.400;16.880;2023-04-01T00:08:30;98841.60;;;9.90;100.00
24336;BME280;33098;52.400;16.880;2023-04-01T00:11:00;98839.30;;;9.93;100.00
24336;BME280;33098;52.400;16.880;2023-04-01T00:13:27;98835.20;;;9.97;100.00
24336;BME280;33098;52.400;16.880;2023-04-01T00:15:55;98835.28;;;9.96;100.00
24336;BME280;33098;52.400;16.880;2023-04-01T00:18:23;98837.53;;;9.95;100.00
24336;BME280;33098;52.400;16.880;2023-04-01T00:20:52;98836.17;;;9.91;100.00
24336;BME280;33098;52.400;16.880;2023-04-01T00:23:19;98836.77;;;9.89;100.00
24336;BME280;33098;52.400;16.880;2023-04-01T00:25:47;98833.88;;;9.82;100.00
24336;BME280;33098;52.400;16.880;2023-04-01T00:28:19;98833.98;;;9.82;100.00
24336;BME280;33098;52.400;16.880;2023-04-01T00:30:47;98832.48;;;9.84;100.00
24336;BME280;33098;52.400;16.880;2023-04-01T00:33:15;98832.47;;;9.86;100.00
24336;BME280;33098;52.400;16.880;2023-04-01T00:35:43;98831.30;;;9.90;100.00
24336;BME280;33098;52.400;16.880;2023-04-01T00:38:17;98830.49;;;9.91;100.00
24336;BME280;33098;52.400;16.880;2023-04-01T00:40:46;98833.41;;;9.92;100.00
24336;BME280;33098;52.400;16.880;2023-04-01T00:43:16;98827.20;;;9.96;100.00
24336;BME280;33098;52.400;16.880;2023-04-01T00:45:48;98827.34;;;10.03;100.00
24336;BME280;33098;52.400;16.880;2023-04-01T00:48:33;98827.20;;;10.03;100.00
24336;BME280;33098;52.400;16.880;2023-04-01T00:51:07;98824.80;;;10.07;100.00
24336;BME280;33098;52.400;16.880;2023-04-01T00:53:39;98825.87;;;10.09;100.00
24336;BME280;33098;52.400;16.880;2023-04-01T00:56:32;98823.79;;;10.10;100.00
24336;BME280;33098;52.400;16.880;2023-04-01T00:59:09;98820.86;;;10.17;100.00
24336;BME280;33098;52.400;16.880;2023-04-01T01:01:37;98821.89;;;10.17;100.00
24336;BME280;33098;52.400;16.880;2023-04-01T01:04:06;98817.38;;;10.16;100.00
24336;BME280;33098;52.400;16.880;2023-04-01T01:09:41;98814.33;;;10.11;100.00
24336;BME280;33098;52.400;16.880;2023-04-01T01:15:26;98813.27;;;10.13;100.00
24336;BME280;33098;52.400;16.880;2023-04-01T01:20:49;98811.64;;;10.18;100.00
24336;BME280;33098;52.400;16.880;2023-04-01T01:35:34;98810.84;;;10.26;100.00
24336;BME280;33098;52.400;16.880;2023-04-01T01:38:09;98813.05;;;10.32;100.00
24336;BME280;33098;52.400;16.880;2023-04-01T01:40:48;98812.59;;;10.35;100.00
24336;BME280;33098;52.400;16.880;2023-04-01T01:43:23;98809.95;;;10.28;100.00
24336;BME280;33098;52.400;16.880;2023-04-01T01:45:56;98815.43;;;10.26;100.00
24336;BME280;33098;52.400;16.880;2023-04-01T01:48:26;98812.50;;;10.18;100.00
24336;BME280;33098;52.400;16.880;2023-04-01T01:50:55;98813.27;;;10.16;100.00
24336;BME280;33098;52.400;16.880;2023-04-01T01:53:22;98811.43;;;10.17;100.00
24336;BME280;33098;52.400;16.880;2023-04-01T01:55:49;98811.29;;;10.16;100.00
24336;BME280;33098;52.400;16.880;2023-04-01T02:00:55;98811.84;;;10.09;100.00
24336;BME280;33098;52.400;16.880;2023-04-01T02:03:25;98811.95;;;10.05;100.00
24336;BME280;33098;52.400;16.880;2023-04-01T02:05:57;98809.42;;;10.02;100.00
24336;BME280;33098;52.400;16.880;2023-04-01T02:08:32;98805.96;;;10.09;100.00
24336;BME280;33098;52.400;16.880;2023-04-01T02:11:05;98811.73;;;10.17;100.00
24336;BME280;33098;52.400;16.880;2023-04-01T02:13:42;98810.86;;;10.05;100.00
24336;BME280;33098;52.400;16.880;2023-04-01T02:16:19;98811.04;;;10.00;100.00
24336;BME280;33098;52.400;16.880;2023-04-01T02:18:53;98811.48;;;10.04;100.00
24336;BME280;33098;52.400;16.880;2023-04-01T02:21:24;98807.11;;;9.98;100.00
24336;BME280;33098;52.400;16.880;2023-04-01T02:23:56;98806.13;;;9.97;100.00
24336;BME280;33098;52.400;16.880;2023-04-01T02:26:26;98804.73;;;10.01;100.00
24336;BME280;33098;52.400;16.880;2023-04-01T02:28:54;98803.50;;;10.03;100.00
24336;BME280;33098;52.400;16.880;2023-04-01T02:31:23;98803.02;;;10.02;100.00
24336;BME280;33098;52.400;16.880;2023-04-01T02:33:52;98803.80;;;10.07;100.00
24336;BME280;33098;52.400;16.880;2023-04-01T02:36:22;98806.14;;;10.05;100.00
24336;BME280;33098;52.400;16.880;2023-04-01T02:38:51;98804.86;;;10.03;100.00
24336;BME280;33098;52.400;16.880;2023-04-01T02:41:19;98807.45;;;10.06;100.00
24336;BME280;33098;52.400;16.880;2023-04-01T02:43:47;98805.92;;;10.07;100.00
24336;BME280;33098;52.400;16.880;2023-04-01T02:46:15;98808.44;;;10.10;100.00
24336;BME280;33098;52.400;16.880;2023-04-01T02:48:44;98812.40;;;10.07;100.00
24336;BME280;33098;52.400;16.880;2023-04-01T02:51:14;98810.77;;;10.01;100.00
24336;BME280;33098;52.400;16.880;2023-04-01T02:53:44;98810.34;;;10.07;100.00
24336;BME280;33098;52.400;16.880;2023-04-01T02:56:12;98815.67;;;10.12;100.00
24336;BME280;33098;52.400;16.880;2023-04-01T02:58:39;98818.09;;;10.14;100.00
24336;BME280;33098;52.400;16.880;2023-04-01T03:01:06;98815.79;;;10.14;100.00
24336;BME280;33098;52.400;16.880;2023-04-01T03:03:34;98820.95;;;10.09;100.00
24336;BME280;33098;52.400;16.880;2023-04-01T03:06:06;98821.02;;;10.06;100.00
24336;BME280;33098;52.400;16.880;2023-04-01T03:08:34;98822.26;;;10.08;100.00
24336;BME280;33098;52.400;16.880;2023-04-01T03:11:02;98819.38;;;10.05;100.00
24336;BME280;33098;52.400;16.880;2023-04-01T03:13:29;98824.47;;;10.01;100.00
24336;BME280;33098;52.400;16.880;2023-04-01T03:16:02;98823.25;;;10.04;100.00
24336;BME280;33098;52.400;16.880;2023-04-01T03:18:29;98822.46;;;10.11;100.00
24336;BME280;33098;52.400;16.880;2023-04-01T03:20:56;98825.27;;;10.13;100.00
24336;BME280;33098;52.400;16.880;2023-04-01T03:23:23;98825.48;;;10.20;100.00
24336;BME280;33098;52.400;16.880;2023-04-01T03:25:50;98827.54;;;10.17;100.00
24336;BME280;33098;52.400;16.880;2023-04-01T03:28:18;98816.99;;;10.08;100.00
24336;BME280;33098;52.400;16.880;2023-04-01T03:30:45;98824.64;;;10.04;100.00
24336;BME280;33098;52.400;16.880;2023-04-01T03:33:13;98822.45;;;10.01;100.00
24336;BME280;33098;52.400;16.880;2023-04-01T03:35:40;98823.35;;;9.99;100.00
24336;BME280;33098;52.400;16.880;2023-04-01T03:38:07;98826.48;;;9.92;100.00
24336;BME280;33098;52.400;16.880;2023-04-01T03:40:34;98828.83;;;9.87;100.00
24336;BME280;33098;52.400;16.880;2023-04-01T03:43:05;98824.84;;;9.89;100.00
24336;BME280;33098;52.400;16.880;2023-04-01T03:45:48;98830.27;;;9.88;100.00
24336;BME280;33098;52.400;16.880;2023-04-01T03:48:15;98824.73;;;9.82;100.00
24336;BME280;33098;52.400;16.880;2023-04-01T03:50:43;98825.90;;;9.81;100.00
24336;BME280;33098;52.400;16.880;2023-04-01T03:53:11;98830.36;;;9.70;100.00
24336;BME280;33098;52.400;16.880;2023-04-01T03:55:40;98829.13;;;9.68;100.00
24336;BME280;33098;52.400;16.880;2023-04-01T03:58:09;98832.94;;;9.67;100.00
24336;BME280;33098;52.400;16.880;2023-04-01T04:00:36;98836.77;;;9.64;100.00
24336;BME280;33098;52.400;16.880;2023-04-01T04:03:05;98838.75;;;9.66;100.00
24336;BME280;33098;52.400;16.880;2023-04-01T04:05:40;98841.23;;;9.66;100.00
24336;BME280;33098;52.400;16.880;2023-04-01T04:08:12;98837.15;;;9.66;100.00
24336;BME280;33098;52.400;16.880;2023-04-01T04:10:41;98840.86;;;9.66;100.00
24336;BME280;33098;52.400;16.880;2023-04-01T04:13:14;98842.32;;;9.68;100.00
24336;BME280;33098;52.400;16.880;2023-04-01T04:15:46;98848.14;;;9.69;100.00
24336;BME280;33098;52.400;16.880;2023-04-01T04:18:13;98851.90;;;9.72;100.00
24336;BME280;33098;52.400;16.880;2023-04-01T04:20:47;98853.11;;;9.68;100.00
24336;BME280;33098;52.400;16.880;2023-04-01T04:23:17;98857.25;;;9.72;100.00
24336;BME280;33098;52.400;16.880;2023-04-01T04:28:27;98854.83;;;9.75;100.00
24336;BME280;33098;52.400;16.880;2023-04-01T04:30:57;98856.29;;;9.80;100.00
24336;BME280;33098;52.400;16.880;2023-04-01T04:33:25;98859.13;;;9.80;100.00
24336;BME280;33098;52.400;16.880;2023-04-01T04:35:56;98860.52;;;9.82;100.00
24336;BME280;33098;52.400;16.880;2023-04-01T04:38:25;98863.13;;;9.88;100.00
24336;BME280;33098;52.400;16.880;2023-04-01T04:40:52;98867.77;;;9.98;100.00
24336;BME280;33098;52.400;16.880;2023-04-01T04:43:20;98868.29;;;10.05;100.00
24336;BME280;33098;52.400;16.880;2023-04-01T04:45:50;98870.91;;;10.10;100.00
24336;BME280;33098;52.400;16.880;2023-04-01T04:48:20;98867.16;;;10.16;100.00
24336;BME280;33098;52.400;16.880;2023-04-01T04:50:49;98869.41;;;10.20;100.00
24336;BME280;33098;52.400;16.880;2023-04-01T04:53:22;98874.73;;;10.15;100.00
24336;BME280;33098;52.400;16.880;2023-04-01T04:55:49;98875.04;;;10.15;100.00
24336;BME280;33098;52.400;16.880;2023-04-01T04:58:43;98876.56;;;10.11;100.00
24336;BME280;33098;52.400;16.880;2023-04-01T05:01:13;98881.21;;;10.05;100.00
24336;BME280;33098;52.400;16.880;2023-04-01T05:03:42;98883.30;;;10.07;100.00
24336;BME280;33098;52.400;16.880;2023-04-01T05:06:11;98884.88;;;10.02;100.00
24336;BME280;33098;52.400;16.880;2023-04-01T05:08:42;98885.05;;;9.97;100.00
24336;BME280;33098;52.400;16.880;2023-04-01T05:11:16;98884.09;;;9.89;100.00
24336;BME280;33098;52.400;16.880;2023-04-01T05:13:45;98886.17;;;9.91;100.00
24336;BME280;33098;52.400;16.880;2023-04-01T05:16:15;98885.59;;;9.88;100.00
24336;BME280;33098;52.400;16.880;2023-04-01T05:18:42;98890.31;;;9.90;100.00
24336;BME280;33098;52.400;16.880;2023-04-01T05:21:14;98893.78;;;9.96;100.00
24336;BME280;33098;52.400;16.880;2023-04-01T05:23:45;98894.27;;;9.91;100.00
24336;BME280;33098;52.400;16.880;2023-04-01T05:26:17;98894.59;;;9.88;100.00
24336;BME280;33098;52.400;16.880;2023-04-01T05:28:44;98895.23;;;9.91;100.00
24336;BME280;33098;52.400;16.880;2023-04-01T05:31:11;98899.77;;;9.95;100.00
24336;BME280;33098;52.400;16.880;2023-04-01T05:33:40;98899.12;;;9.94;100.00
24336;BME280;33098;52.400;16.880;2023-04-01T05:36:10;98897.73;;;10.00;100.00
24336;BME280;33098;52.400;16.880;2023-04-01T05:38:38;98899.02;;;10.10;100.00
24336;BME280;33098;52.400;16.880;2023-04-01T05:41:06;98903.89;;;10.16;100.00
24336;BME280;33098;52.400;16.880;2023-04-01T05:43:40;98908.47;;;10.20;100.00
24336;BME280;33098;52.400;16.880;2023-04-01T05:46:27;98906.61;;;10.19;100.00
24336;BME280;33098;52.400;16.880;2023-04-01T05:49:09;98908.66;;;10.14;100.00
24336;BME280;33098;52.400;16.880;2023-04-01T05:51:37;98910.18;;;10.22;100.00
24336;BME280;33098;52.400;16.880;2023-04-01T05:54:05;98909.69;;;10.30;100.00
24336;BME280;33098;52.400;16.880;2023-04-01T05:56:35;98913.52;;;10.27;100.00
24336;BME280;33098;52.400;16.880;2023-04-01T05:59:05;98913.06;;;10.27;100.00
24336;BME280;33098;52.400;16.880;2023-04-01T06:01:40;98913.61;;;10.34;100.00
24336;BME280;33098;52.400;16.880;2023-04-01T06:04:14;98916.47;;;10.39;100.00
24336;BME280;33098;52.400;16.880;2023-04-01T06:06:46;98910.65;;;10.46;100.00
24336;BME280;33098;52.400;16.880;2023-04-01T06:09:26;98915.57;;;10.51;100.00
24336;BME280;33098;52.400;16.880;2023-04-01T06:23:13;98932.73;;;10.57;100.00
24336;BME280;33098;52.400;16.880;2023-04-01T06:25:54;98930.44;;;10.62;100.00
24336;BME280;33098;52.400;16.880;2023-04-01T06:28:44;98933.73;;;10.70;100.00
24336;BME280;33098;52.400;16.880;2023-04-01T06:37:15;98938.05;;;10.85;100.00
24336;BME280;33098;52.400;16.880;2023-04-01T06:43:49;98940.08;;;10.81;100.00
24336;BME280;33098;52.400;16.880;2023-04-01T06:46:49;98941.48;;;10.74;100.00
24336;BME280;33098;52.400;16.880;2023-04-01T06:50:01;98944.25;;;10.81;100.00
24336;BME280;33098;52.400;16.880;2023-04-01T06:56:17;98949.50;;;10.82;100.00
24336;BME280;33098;52.400;16.880;2023-04-01T06:59:05;98954.11;;;10.69;100.00
24336;BME280;33098;52.400;16.880;2023-04-01T07:01:39;98960.77;;;10.62;100.00
24336;BME280;33098;52.400;16.880;2023-04-01T07:04:15;98958.15;;;10.58;100.00
24336;BME280;33098;52.400;16.880;2023-04-01T07:07:12;98960.69;;;10.61;100.00
24336;BME280;33098;52.400;16.880;2023-04-01T07:09:55;98960.05;;;10.71;100.00
24336;BME280;33098;52.400;16.880;2023-04-01T07:15:36;98966.20;;;10.92;100.00
24336;BME280;33098;52.400;16.880;2023-04-01T07:20:38;98974.27;;;10.96;100.00
24336;BME280;33098;52.400;16.880;2023-04-01T07:23:23;98974.88;;;11.01;100.00
24336;BME280;33098;52.400;16.880;2023-04-01T07:26:11;98982.02;;;11.04;100.00
24336;BME280;33098;52.400;16.880;2023-04-01T07:29:08;98978.09;;;11.06;100.00
24336;BME280;33098;52.400;16.880;2023-04-01T07:40:51;98992.48;;;11.20;100.00
24336;BME280;33098;52.400;16.880;2023-04-01T07:49:17;98997.54;;;11.36;100.00
24336;BME280;33098;52.400;16.880;2023-04-01T07:52:25;99002.64;;;11.38;100.00
24336;BME280;33098;52.400;16.880;2023-04-01T08:09:14;99022.23;;;11.70;100.00
24336;BME280;33098;52.400;16.880;2023-04-01T08:12:45;99026.20;;;11.76;100.00
24336;BME280;33098;52.400;16.880;2023-04-01T08:15:52;99032.27;;;11.82;100.00
24336;BME280;33098;52.400;16.880;2023-04-01T08:21:50;99037.31;;;11.99;100.00
24336;BME280;33098;52.400;16.880;2023-04-01T08:27:00;99045.73;;;12.10;100.00
24336;BME280;33098;52.400;16.880;2023-04-01T08:32:15;99041.95;;;12.15;100.00
24336;BME280;33098;52.400;16.880;2023-04-01T08:35:02;99047.23;;;12.16;100.00
24336;BME280;33098;52.400;16.880;2023-04-01T08:37:38;99048.06;;;12.13;100.00
24336;BME280;33098;52.400;16.880;2023-04-01T08:45:44;99059.09;;;12.03;100.00
24336;BME280;33098;52.400;16.880;2023-04-01T08:51:20;99067.14;;;12.13;100.00
24336;BME280;33098;52.400;16.880;2023-04-01T09:00:30;99069.69;;;12.32;100.00
24336;BME280;33098;52.400;16.880;2023-04-01T09:09:05;99080.64;;;12.19;100.00
24336;BME280;33098;52.400;16.880;2023-04-01T09:25:34;99101.11;;;12.21;100.00
24336;BME280;33098;52.400;16.880;2023-04-01T09:34:04;99111.24;;;12.38;100.00
24336;BME280;33098;52.400;16.880;2023-04-01T09:54:04;99140.13;;;11.97;100.00
24336;BME280;33098;52.400;16.880;2023-04-01T09:59:29;99154.61;;;11.87;100.00
24336;BME280;33098;52.400;16.880;2023-04-01T10:28:52;99186.98;;;11.40;100.00
24336;BME280;33098;52.400;16.880;2023-04-01T10:38:01;99187.60;;;11.30;100.00
24336;BME280;33098;52.400;16.880;2023-04-01T10:49:43;99198.34;;;11.42;100.00
24336;BME280;33098;52.400;16.880;2023-04-01T11:01:57;99203.13;;;11.46;100.00
24336;BME280;33098;52.400;16.880;2023-04-01T11:05:17;99208.41;;;11.51;100.00
24336;BME280;33098;52.400;16.880;2023-04-01T11:17:15;99215.84;;;11.53;100.00
24336;BME280;33098;52.400;16.880;2023-04-01T11:20:06;99215.27;;;11.54;100.00
24336;BME280;33098;52.400;16.880;2023-04-01T11:25:40;99218.44;;;11.54;100.00
24336;BME280;33098;52.400;16.880;2023-04-01T11:35:28;99226.76;;;11.86;100.00
24336;BME280;33098;52.400;16.880;2023-04-01T11:40:57;99235.83;;;11.97;100.00
24336;BME280;33098;52.400;16.880;2023-04-01T11:44:18;99240.67;;;11.94;100.00
24336;BME280;33098;52.400;16.880;2023-04-01T11:47:18;99242.81;;;11.88;100.00
24336;BME280;33098;52.400;16.880;2023-04-01T11:50:04;99245.30;;;11.89;100.00
24336;BME280;33098;52.400;16.880;2023-04-01T11:52:59;99250.48;;;11.96;100.00
24336;BME280;33098;52.400;16.880;2023-04-01T11:55:42;99247.94;;;12.00;100.00
24336;BME280;33098;52.400;16.880;2023-04-01T11:58:31;99258.05;;;12.00;100.00
24336;BME280;33098;52.400;16.880;2023-04-01T12:01:17;99260.90;;;11.96;100.00
24336;BME280;33098;52.400;16.880;2023-04-01T12:18:00;99284.70;;;11.61;100.00
24336;BME280;33098;52.400;16.880;2023-04-01T12:20:58;99287.80;;;11.60;100.00
24336;BME280;33098;52.400;16.880;2023-04-01T12:31:56;99297.45;;;11.32;100.00
24336;BME280;33098;52.400;16.880;2023-04-01T12:34:52;99301.47;;;11.26;100.00
24336;BME280;33098;52.400;16.880;2023-04-01T12:37:49;99305.66;;;11.18;100.00
24336;BME280;33098;52.400;16.880;2023-04-01T12:46:20;99312.44;;;11.17;100.00
24336;BME280;33098;52.400;16.880;2023-04-01T12:49:42;99315.35;;;11.12;100.00
24336;BME280;33098;52.400;16.880;2023-04-01T12:52:44;99323.06;;;11.09;100.00
24336;BME280;33098;52.400;16.880;2023-04-01T12:55:32;99328.22;;;11.09;100.00
24336;BME280;33098;52.400;16.880;2023-04-01T12:58:23;99331.86;;;11.12;100.00
24336;BME280;33098;52.400;16.880;2023-04-01T13:01:14;99333.77;;;11.15;100.00
24336;BME280;33098;52.400;16.880;2023-04-01T13:06:45;99335.77;;;11.07;100.00
24336;BME280;33098;52.400;16.880;2023-04-01T13:09:21;99335.63;;;11.12;100.00
24336;BME280;33098;52.400;16.880;2023-04-01T13:22:57;99351.71;;;11.34;100.00
24336;BME280;33098;52.400;16.880;2023-04-01T13:25:50;99352.30;;;11.41;100.00
24336;BME280;33098;52.400;16.880;2023-04-01T13:28:25;99354.13;;;11.42;100.00
24336;BME280;33098;52.400;16.880;2023-04-01T13:42:28;99362.81;;;11.37;100.00
24336;BME280;33098;52.400;16.880;2023-04-01T13:45:24;99363.80;;;11.40;100.00
24336;BME280;33098;52.400;16.880;2023-04-01T13:53:43;99367.31;;;11.42;100.00
24336;BME280;33098;52.400;16.880;2023-04-01T13:56:32;99370.13;;;11.44;100.00
24336;BME280;33098;52.400;16.880;2023-04-01T13:59:07;99369.46;;;11.43;99.81
24336;BME280;33098;52.400;16.880;2023-04-01T14:01:53;99371.38;;;11.44;99.59
24336;BME280;33098;52.400;16.880;2023-04-01T14:04:39;99376.98;;;11.50;99.53
24336;BME280;33098;52.400;16.880;2023-04-01T14:08:04;99375.48;;;11.60;99.71
24336;BME280;33098;52.400;16.880;2023-04-01T14:10:49;99385.55;;;11.68;99.40
24336;BME280;33098;52.400;16.880;2023-04-01T14:16:04;99391.94;;;11.62;98.42
24336;BME280;33098;52.400;16.880;2023-04-01T14:24:45;99399.29;;;11.49;97.17
24336;BME280;33098;52.400;16.880;2023-04-01T14:35:28;99407.04;;;11.26;96.08
24336;BME280;33098;52.400;16.880;2023-04-01T14:38:09;99415.85;;;11.23;95.98
24336;BME280;33098;52.400;16.880;2023-04-01T14:47:24;99425.73;;;11.17;95.59
24336;BME280;33098;52.400;16.880;2023-04-01T14:58:17;99439.27;;;11.14;95.53
24336;BME280;33098;52.400;16.880;2023-04-01T15:17:43;99458.98;;;11.01;94.97
24336;BME280;33098;52.400;16.880;2023-04-01T15:20:30;99470.74;;;10.93;94.66
24336;BME280;33098;52.400;16.880;2023-04-01T15:26:13;99473.63;;;10.82;94.31
24336;BME280;33098;52.400;16.880;2023-04-01T15:34:32;99489.87;;;10.73;94.41
24336;BME280;33098;52.400;16.880;2023-04-01T15:45:11;99502.58;;;10.67;94.13
24336;BME280;33098;52.400;16.880;2023-04-01T15:47:45;99509.46;;;10.65;94.11
24336;BME280;33098;52.400;16.880;2023-04-01T15:50:43;99509.61;;;10.61;93.96
24336;BME280;33098;52.400;16.880;2023-04-01T15:56:37;99521.88;;;10.55;93.89
24336;BME280;33098;52.400;16.880;2023-04-01T16:04:54;99528.52;;;10.53;93.60
24336;BME280;33098;52.400;16.880;2023-04-01T16:07:43;99532.38;;;10.53;93.56
24336;BME280;33098;52.400;16.880;2023-04-01T16:10:38;99536.08;;;10.53;93.40
24336;BME280;33098;52.400;16.880;2023-04-01T16:15:56;99543.70;;;10.53;93.20
24336;BME280;33098;52.400;16.880;2023-04-01T16:18:55;99546.86;;;10.52;93.11
24336;BME280;33098;52.400;16.880;2023-04-01T16:21:41;99547.05;;;10.48;92.95
24336;BME280;33098;52.400;16.880;2023-04-01T16:24:17;99549.89;;;10.46;92.78
24336;BME280;33098;52.400;16.880;2023-04-01T16:26:58;99552.34;;;10.42;92.62
24336;BME280;33098;52.400;16.880;2023-04-01T16:29:30;99557.91;;;10.38;92.40
24336;BME280;33098;52.400;16.880;2023-04-01T16:35:13;99568.16;;;10.29;92.30
24336;BME280;33098;52.400;16.880;2023-04-01T16:38:00;99574.75;;;10.27;92.21
24336;BME280;33098;52.400;16.880;2023-04-01T16:43:50;99589.27;;;10.16;92.05
24336;BME280;33098;52.400;16.880;2023-04-01T16:46:36;99588.66;;;10.11;91.95
24336;BME280;33098;52.400;16.880;2023-04-01T16:54:53;99602.80;;;10.02;91.61
24336;BME280;33098;52.400;16.880;2023-04-01T17:00:22;99614.15;;;9.89;91.19
24336;BME280;33098;52.400;16.880;2023-04-01T17:03:11;99618.05;;;9.87;91.25
24336;BME280;33098;52.400;16.880;2023-04-01T17:11:41;99633.84;;;9.81;91.15
24336;BME280;33098;52.400;16.880;2023-04-01T17:17:15;99641.69;;;9.81;91.13
24336;BME280;33098;52.400;16.880;2023-04-01T17:19:54;99646.53;;;9.70;90.97
24336;BME280;33098;52.400;16.880;2023-04-01T17:28:33;99655.66;;;9.58;91.21
24336;BME280;33098;52.400;16.880;2023-04-01T17:30:43;99655.95;;;9.53;91.13
24336;BME280;33098;52.400;16.880;2023-04-01T17:39:15;99665.44;;;9.38;90.98
24336;BME280;33098;52.400;16.880;2023-04-01T17:42:00;99669.48;;;9.40;91.24
24336;BME280;33098;52.400;16.880;2023-04-01T17:45:10;99670.37;;;9.42;91.19
24336;BME280;33098;52.400;16.880;2023-04-01T17:47:49;99675.80;;;9.39;90.84
24336;BME280;33098;52.400;16.880;2023-04-01T17:50:28;99677.88;;;9.33;90.66
24336;BME280;33098;52.400;16.880;2023-04-01T17:53:17;99685.11;;;9.23;90.38
24336;BME280;33098;52.400;16.880;2023-04-01T17:56:02;99688.20;;;9.15;90.33
24336;BME280;33098;52.400;16.880;2023-04-01T17:58:44;99690.60;;;9.08;90.22
24336;BME280;33098;52.400;16.880;2023-04-01T18:14:43;99717.37;;;8.97;89.63
24336;BME280;33098;52.400;16.880;2023-04-01T18:17:24;99722.00;;;8.94;89.56
24336;BME280;33098;52.400;16.880;2023-04-01T18:20:02;99722.45;;;8.93;89.53
24336;BME280;33098;52.400;16.880;2023-04-01T18:22:44;99723.64;;;8.88;89.31
24336;BME280;33098;52.400;16.880;2023-04-01T18:25:33;99728.89;;;8.86;89.29
24336;BME280;33098;52.400;16.880;2023-04-01T18:28:18;99734.65;;;8.85;89.29
24336;BME280;33098;52.400;16.880;2023-04-01T18:30:58;99736.45;;;8.84;89.17
24336;BME280;33098;52.400;16.880;2023-04-01T18:34:17;99743.65;;;8.83;89.07
24336;BME280;33098;52.400;16.880;2023-04-01T18:36:47;99753.60;;;8.78;88.88
24336;BME280;33098;52.400;16.880;2023-04-01T18:39:23;99760.52;;;8.74;88.88
24336;BME280;33098;52.400;16.880;2023-04-01T18:45:23;99775.00;;;8.65;88.70
24336;BME280;33098;52.400;16.880;2023-04-01T18:50:38;99787.68;;;8.55;88.33
24336;BME280;33098;52.400;16.880;2023-04-01T18:53:17;99794.05;;;8.53;88.40
24336;BME280;33098;52.400;16.880;2023-04-01T19:01:06;99800.97;;;8.43;87.98
24336;BME280;33098;52.400;16.880;2023-04-01T19:06:41;99814.11;;;8.42;87.74
24336;BME280;33098;52.400;16.880;2023-04-01T19:09:17;99817.77;;;8.32;87.47
24336;BME280;33098;52.400;16.880;2023-04-01T19:12:09;99820.07;;;8.29;87.58
24336;BME280;33098;52.400;16.880;2023-04-01T19:23:46;99834.88;;;8.23;87.18
24336;BME280;33098;52.400;16.880;2023-04-01T19:29:06;99843.67;;;8.15;86.93
24336;BME280;33098;52.400;16.880;2023-04-01T19:32:05;99849.45;;;8.09;86.74
24336;BME280;33098;52.400;16.880;2023-04-01T19:34:52;99852.29;;;7.99;86.73
24336;BME280;33098;52.400;16.880;2023-04-01T19:37:35;99852.63;;;7.99;86.80
24336;BME280;33098;52.400;16.880;2023-04-01T19:43:03;99864.83;;;7.88;86.78
24336;BME280;33098;52.400;16.880;2023-04-01T19:46:01;99867.44;;;7.86;87.03
24336;BME280;33098;52.400;16.880;2023-04-01T19:54:35;99882.13;;;7.88;87.46
24336;BME280;33098;52.400;16.880;2023-04-01T19:57:17;99889.14;;;7.91;87.47
24336;BME280;33098;52.400;16.880;2023-04-01T20:05:34;99898.50;;;7.77;87.10
24336;BME280;33098;52.400;16.880;2023-04-01T20:19:45;99918.71;;;7.69;87.40
24336;BME280;33098;52.400;16.880;2023-04-01T20:24:52;99926.70;;;7.66;87.58
24336;BME280;33098;52.400;16.880;2023-04-01T20:27:33;99926.80;;;7.65;87.52
24336;BME280;33098;52.400;16.880;2023-04-01T20:33:02;99937.13;;;7.56;87.45
24336;BME280;33098;52.400;16.880;2023-04-01T20:35:47;99942.84;;;7.58;87.60
24336;BME280;33098;52.400;16.880;2023-04-01T20:41:27;99949.23;;;7.55;87.62
24336;BME280;33098;52.400;16.880;2023-04-01T20:44:03;99956.36;;;7.57;87.65
24336;BME280;33098;52.400;16.880;2023-04-01T20:49:39;99964.13;;;7.54;88.04
24336;BME280;33098;52.400;16.880;2023-04-01T20:52:17;99963.59;;;7.57;88.04
24336;BME280;33098;52.400;16.880;2023-04-01T20:57:49;99967.05;;;7.58;88.10
24336;BME280;33098;52.400;16.880;2023-04-01T21:00:37;99970.49;;;7.59;88.10
24336;BME280;33098;52.400;16.880;2023-04-01T21:06:04;99974.95;;;7.63;88.21
24336;BME280;33098;52.400;16.880;2023-04-01T21:12:13;99980.64;;;7.60;88.15
24336;BME280;33098;52.400;16.880;2023-04-01T21:22:19;99994.09;;;7.55;87.84
24336;BME280;33098;52.400;16.880;2023-04-01T21:27:42;100008.08;;;7.47;87.63
24336;BME280;33098;52.400;16.880;2023-04-01T21:32:56;100013.91;;;7.40;87.64
24336;BME280;33098;52.400;16.880;2023-04-01T21:41:29;100019.77;;;7.29;87.51
24336;BME280;33098;52.400;16.880;2023-04-01T21:44:41;100024.59;;;7.26;87.46
24336;BME280;33098;52.400;16.880;2023-04-01T21:47:33;100030.23;;;7.21;87.48
24336;BME280;33098;52.400;16.880;2023-04-01T21:53:23;100038.41;;;7.23;87.67
24336;BME280;33098;52.400;16.880;2023-04-01T22:08:00;100061.27;;;7.17;87.19
24336;BME280;33098;52.400;16.880;2023-04-01T22:10:38;100066.10;;;7.08;86.97
24336;BME280;33098;52.400;16.880;2023-04-01T22:13:21;100069.58;;;7.03;86.83
24336;BME280;33098;52.400;16.880;2023-04-01T22:16:43;100071.70;;;6.98;86.70
24336;BME280;33098;52.400;16.880;2023-04-01T22:19:20;100079.06;;;6.92;86.50
24336;BME280;33098;52.400;16.880;2023-04-01T22:24:39;100087.67;;;6.90;86.67
24336;BME280;33098;52.400;16.880;2023-04-01T22:27:26;100091.70;;;6.87;86.55